aviador You're here:

PAGA Decoded Metar

GALENA in AK, USA
Report Time2018-05-25 19:56:00
UTC Time2018-05-25 20:38:26
Flight Rules vfr VFR
Wind180° at 05 kt
W.Decomp.*RWY 24: 1.1 kt HW 4.9 kt LCW
RWY 25: 0.3 kt HW 5 kt LCW
W.Rank180° ranks 28
Current wind is below 180° avg. (6.5)
Visibility9999 m
Phenomena:N/A
Clouds:Overcast 095 Hf
Expected CloudBase > 3,200 ft AGL from Temp-Dew spread
Ceiling9,500 ft
Temp10°C (ISA -5)
Dew Point02°C (58% RH)
AAT6.5°C
QNH1006 hPa
Density Alt-75 ft
Elevation151 ft
Report Wrong Elevation
Raw Report
PAGA 251956Z AUTO 18005KT 10SM OVC095 10/02 A2972=

Extra information for PAGA:More info

Metar Taf Metar & Taf Last 4 Metars F.Rules Stats Wind Profile Meteogram Temp Stats Airport Information Weather charts Add Link Nearby VenuesMetar ALERT Operation Metar Decoded Social comments

AIRNAV info for PAGA